Time;durP1;ratioP1;P1;durP2;ratioP2;P2;SDS_P1;SDS_P2;PMS_P1;PMS_P2;Temp;Humidity;BMP_temperature;BMP_pressure;BME280_temperature;BME280_humidity;BME280_pressure;Samples;Min_cycle;Max_cycle;Signal;HPM_P1;HPM_P2
2021/12/09 00:00:16;;;;;;;;;14.00;12.67;;;;;21.19;42.21;100405.42;109364;1280;22384;-72
2021/12/09 00:03:06;;;;;;;;;13.33;13.00;;;;;21.19;42.21;100402.02;109358;1280;19162;-72
2021/12/09 00:05:32;;;;;;;;;12.67;11.33;;;;;21.19;42.37;100399.98;109351;1280;22220;-72
2021/12/09 00:07:58;;;;;;;;;14.00;13.00;;;;;21.19;42.44;100397.59;109389;1279;20538;-72
2021/12/09 00:10:24;;;;;;;;;13.00;13.00;;;;;21.19;42.33;100405.08;109327;1280;21308;-72
2021/12/09 00:12:50;;;;;;;;;13.00;13.00;;;;;21.20;42.30;100396.45;109318;1279;20028;-73
2021/12/09 00:15:16;;;;;;;;;13.00;12.00;;;;;21.19;42.25;100385.88;109316;1279;20228;-72
2021/12/09 00:17:42;;;;;;;;;12.50;12.00;;;;;21.18;42.22;100378.79;109240;1272;119503;-73
2021/12/09 00:20:09;;;;;;;;;14.00;13.00;;;;;21.18;42.20;100377.73;109348;1280;19092;-72
2021/12/09 00:22:35;;;;;;;;;17.00;16.00;;;;;21.19;42.18;100375.20;109306;1280;20495;-73
2021/12/09 00:25:01;;;;;;;;;11.50;11.00;;;;;21.19;42.11;100376.52;109341;1280;18366;-72
2021/12/09 00:27:27;;;;;;;;;13.00;13.00;;;;;21.20;42.29;100375.20;109368;1280;18708;-73
2021/12/09 00:29:53;;;;;;;;;14.00;13.00;;;;;21.20;42.05;100369.36;109411;1279;19014;-72
2021/12/09 00:32:20;;;;;;;;;17.00;14.00;;;;;21.19;42.22;100368.94;109368;1278;18644;-72
2021/12/09 00:34:48;;;;;;;;;12.00;10.67;;;;;21.18;42.04;100359.88;109360;1279;20262;-71
2021/12/09 00:37:19;;;;;;;;;11.33;10.00;;;;;21.15;41.98;100342.86;109335;1280;23334;-73
2021/12/09 00:39:45;;;;;;;;;14.00;13.00;;;;;21.19;42.17;100345.71;109326;1279;22742;-72
2021/12/09 00:42:11;;;;;;;;;12.50;12.00;;;;;21.19;42.24;100348.90;109340;1279;23317;-72
2021/12/09 00:44:37;;;;;;;;;13.00;11.00;;;;;21.20;42.14;100346.30;109358;1280;19683;-72
2021/12/09 00:47:03;;;;;;;;;13.50;12.00;;;;;21.18;41.89;100339.08;109290;1279;18672;-72
2021/12/09 00:49:30;;;;;;;;;11.00;9.50;;;;;21.19;42.03;100335.45;109325;1280;19401;-72
2021/12/09 00:51:56;;;;;;;;;13.00;13.00;;;;;21.17;42.16;100324.98;109324;1280;21628;-72
2021/12/09 00:54:22;;;;;;;;;14.50;12.00;;;;;21.19;42.03;100332.08;109337;1280;19842;-71
2021/12/09 00:56:48;;;;;;;;;14.00;12.00;;;;;21.19;41.94;100334.05;109339;1280;18857;-71
2021/12/09 00:59:14;;;;;;;;;13.00;13.00;;;;;21.18;42.04;100334.04;109319;1279;19043;-72
2021/12/09 01:01:40;;;;;;;;;15.00;13.00;;;;;21.17;42.04;100337.01;109350;1280;18141;-72
2021/12/09 01:04:06;;;;;;;;;14.00;11.00;;;;;21.17;41.99;100336.49;109370;1280;19400;-72
2021/12/09 01:06:32;;;;;;;;;9.50;9.50;;;;;21.16;41.89;100335.23;109406;1280;19191;-72
2021/12/09 01:08:58;;;;;;;;;13.00;12.50;;;;;21.16;42.01;100326.99;109405;1280;19214;-72
2021/12/09 01:11:24;;;;;;;;;12.50;12.00;;;;;21.15;42.03;100321.05;109403;1280;22559;-72
2021/12/09 01:13:50;;;;;;;;;14.00;12.50;;;;;21.14;41.96;100313.23;109355;1280;18850;-72
2021/12/09 01:16:16;;;;;;;;;12.00;10.00;;;;;21.15;41.93;100313.97;109344;1280;20464;-72
2021/12/09 01:18:41;;;;;;;;;10.00;10.00;;;;;21.15;41.86;100315.25;109359;1280;19320;-70
2021/12/09 01:21:07;;;;;;;;;12.00;11.00;;;;;21.15;41.91;100307.45;109355;1279;18579;-72
2021/12/09 01:23:33;;;;;;;;;13.50;13.00;;;;;21.14;42.03;100304.60;109291;1279;18728;-72
2021/12/09 01:26:02;;;;;;;;;13.00;12.00;;;;;21.15;41.75;100303.39;109280;1280;21299;-72
2021/12/09 01:28:32;;;;;;;;;13.33;13.00;;;;;21.16;41.71;100303.28;109384;1279;19192;-72
2021/12/09 01:31:02;;;;;;;;;10.67;9.67;;;;;21.15;41.83;100302.68;109359;1279;21027;-72
2021/12/09 01:33:28;;;;;;;;;14.50;12.00;;;;;21.15;41.82;100297.44;109331;1278;19533;-72
2021/12/09 01:35:54;;;;;;;;;13.00;12.00;;;;;21.15;41.86;100289.13;109332;1279;18657;-72
2021/12/09 01:38:22;;;;;;;;;13.00;12.50;;;;;21.15;41.75;100292.52;109409;1280;19042;-72
2021/12/09 01:40:48;;;;;;;;;14.00;12.00;;;;;21.16;41.84;100293.88;109364;1280;21197;-71
2021/12/09 01:43:14;;;;;;;;;12.00;12.00;;;;;21.15;41.89;100292.20;109332;1279;18650;-72
2021/12/09 01:45:40;;;;;;;;;16.50;14.00;;;;;21.14;41.73;100291.27;109378;1280;19002;-72
2021/12/09 01:48:05;;;;;;;;;10.00;10.00;;;;;21.14;41.79;100290.47;109364;1280;19480;-72
2021/12/09 01:50:32;;;;;;;;;10.00;9.00;;;;;21.14;41.69;100288.16;109358;1279;18709;-72
2021/12/09 01:52:58;;;;;;;;;12.00;10.67;;;;;21.15;41.70;100292.40;109367;1279;22936;-74
2021/12/09 01:55:26;;;;;;;;;12.00;10.00;;;;;21.15;41.64;100285.86;109360;1280;22495;-72
2021/12/09 01:57:51;;;;;;;;;12.00;10.00;;;;;21.14;41.50;100289.80;109340;1278;22335;-72
2021/12/09 02:00:17;;;;;;;;;12.00;10.00;;;;;21.14;41.67;100290.72;109345;1280;23087;-72
2021/12/09 02:02:43;;;;;;;;;12.00;12.00;;;;;21.15;41.78;100286.23;109319;1280;22392;-71
2021/12/09 02:05:09;;;;;;;;;13.50;12.00;;;;;21.14;41.71;100275.80;109315;1280;22378;-72
2021/12/09 02:07:35;;;;;;;;;12.50;12.00;;;;;21.14;41.75;100271.64;109272;1280;19937;-72
2021/12/09 02:10:02;;;;;;;;;9.00;9.00;;;;;21.14;41.69;100279.02;109228;1280;20953;-73
2021/12/09 02:12:27;;;;;;;;;10.00;10.00;;;;;21.13;41.55;100288.45;109344;1279;20047;-72
2021/12/09 02:14:54;;;;;;;;;13.00;12.00;;;;;21.13;41.62;100282.75;109452;1280;18612;-72
2021/12/09 02:17:20;;;;;;;;;13.00;12.00;;;;;21.13;41.63;100278.30;109351;1279;21706;-72
2021/12/09 02:19:46;;;;;;;;;11.00;10.00;;;;;21.10;41.67;100271.73;109355;1280;19150;-73
2021/12/09 02:22:13;;;;;;;;;12.50;10.00;;;;;21.08;41.54;100271.23;109420;1280;22348;-73
2021/12/09 02:24:39;;;;;;;;;11.33;10.00;;;;;21.12;41.41;100270.27;109434;1279;20379;-73
2021/12/09 02:27:06;;;;;;;;;9.00;9.00;;;;;21.12;41.46;100259.14;109426;1280;18818;-75
2021/12/09 02:29:32;;;;;;;;;10.00;9.00;;;;;21.12;41.62;100259.30;109398;1280;18735;-74
2021/12/09 02:31:59;;;;;;;;;11.00;9.50;;;;;21.12;41.59;100255.88;109340;1280;19366;-73
2021/12/09 02:34:25;;;;;;;;;12.00;10.00;;;;;21.13;41.42;100250.17;109342;1280;18949;-73
2021/12/09 02:36:51;;;;;;;;;12.00;10.00;;;;;21.13;41.50;100248.83;109362;1279;22527;-73
2021/12/09 02:39:17;;;;;;;;;11.33;11.33;;;;;21.12;41.69;100248.41;109206;1279;19974;-72
2021/12/09 02:41:43;;;;;;;;;11.00;10.00;;;;;21.12;41.52;100247.94;109342;1279;18580;-73
2021/12/09 02:44:09;;;;;;;;;10.00;10.00;;;;;21.12;41.52;100246.67;109316;1280;19628;-73
2021/12/09 02:46:37;;;;;;;;;14.00;13.50;;;;;21.12;41.37;100242.44;109347;1280;19901;-73
2021/12/09 02:49:03;;;;;;;;;12.00;9.67;;;;;21.12;41.46;100246.22;109378;1280;20922;-73
2021/12/09 02:51:29;;;;;;;;;12.00;9.00;;;;;21.11;41.55;100246.71;109356;1279;20775;-73
2021/12/09 02:53:55;;;;;;;;;8.50;8.00;;;;;21.12;41.28;100245.72;109375;1279;19836;-73
2021/12/09 02:56:21;;;;;;;;;12.00;10.00;;;;;21.12;41.44;100248.44;109314;1280;18674;-73
2021/12/09 02:58:47;;;;;;;;;10.00;10.00;;;;;21.11;41.31;100246.13;109334;1280;18742;-72
2021/12/09 03:01:14;;;;;;;;;12.00;11.00;;;;;21.12;41.23;100254.98;109308;1280;19874;-72
2021/12/09 03:03:46;;;;;;;;;10.67;9.67;;;;;21.12;41.44;100264.21;109331;1280;20375;-73
2021/12/09 03:06:11;;;;;;;;;12.00;10.00;;;;;21.12;41.35;100263.28;109418;1279;22225;-73
2021/12/09 03:08:38;;;;;;;;;12.00;10.00;;;;;21.12;41.42;100258.16;109343;1280;20709;-72
2021/12/09 03:11:04;;;;;;;;;10.00;9.33;;;;;21.12;41.39;100256.10;109369;1280;20503;-73
2021/12/09 03:13:30;;;;;;;;;8.00;8.00;;;;;21.11;41.36;100259.76;109341;1279;21193;-73
2021/12/09 03:15:56;;;;;;;;;9.00;9.00;;;;;21.12;41.49;100260.40;109356;1280;19668;-73
2021/12/09 03:18:22;;;;;;;;;12.00;10.00;;;;;21.10;41.29;100255.74;109370;1280;18377;-72
2021/12/09 03:20:48;;;;;;;;;12.00;9.00;;;;;21.10;41.33;100252.14;109356;1280;19375;-71
2021/12/09 03:23:13;;;;;;;;;11.00;10.00;;;;;21.11;41.34;100261.63;109357;1279;22296;-72
2021/12/09 03:25:39;;;;;;;;;13.00;12.00;;;;;21.07;41.12;100254.11;109375;1279;21124;-73
2021/12/09 03:28:05;;;;;;;;;9.50;9.00;;;;;21.10;41.30;100256.29;109357;1280;18830;-73
2021/12/09 03:30:31;;;;;;;;;10.00;9.00;;;;;21.10;41.28;100252.68;109345;1279;19276;-73
2021/12/09 03:32:57;;;;;;;;;13.00;12.00;;;;;21.09;41.15;100249.98;109400;1280;18723;-72
2021/12/09 03:35:24;;;;;;;;;10.00;10.00;;;;;21.09;41.19;100242.23;109362;1280;18740;-73
2021/12/09 03:37:49;;;;;;;;;12.00;9.67;;;;;21.09;41.08;100242.54;109400;1279;19588;-72
2021/12/09 03:40:15;;;;;;;;;8.00;8.00;;;;;21.09;41.06;100245.16;109363;1280;18649;-72
2021/12/09 03:42:41;;;;;;;;;10.00;9.00;;;;;21.09;41.19;100244.95;109371;1280;19389;-72
2021/12/09 03:45:07;;;;;;;;;9.00;8.50;;;;;21.10;41.09;100254.87;109291;1280;19944;-73
2021/12/09 03:47:33;;;;;;;;;11.00;9.00;;;;;21.10;41.15;100253.56;109315;1279;21989;-72
2021/12/09 03:49:59;;;;;;;;;9.00;9.00;;;;;21.10;41.02;100259.21;109316;1279;22357;-73
2021/12/09 03:52:26;;;;;;;;;10.00;9.00;;;;;21.10;40.95;100262.61;109327;1280;19622;-72
2021/12/09 03:54:52;;;;;;;;;10.00;9.50;;;;;21.10;41.03;100256.95;109363;1279;18645;-72
2021/12/09 03:57:18;;;;;;;;;9.00;9.00;;;;;21.09;40.94;100244.07;109358;1279;22351;-72
2021/12/09 03:59:44;;;;;;;;;9.00;9.00;;;;;21.10;41.06;100247.60;109345;1280;19504;-72
2021/12/09 04:02:09;;;;;;;;;10.00;10.00;;;;;21.08;40.90;100248.35;109318;1279;18425;-72
2021/12/09 04:04:35;;;;;;;;;13.50;11.00;;;;;21.08;41.00;100245.95;109372;1280;19353;-72
2021/12/09 04:07:01;;;;;;;;;9.00;9.00;;;;;21.09;41.11;100247.89;109350;1280;22479;-72
2021/12/09 04:09:27;;;;;;;;;10.00;9.00;;;;;21.09;41.05;100248.57;109345;1280;20257;-72
2021/12/09 04:11:53;;;;;;;;;9.00;8.00;;;;;21.08;40.98;100248.81;109374;1279;18820;-73
2021/12/09 04:14:19;;;;;;;;;9.00;9.00;;;;;21.10;40.87;100241.98;109317;1280;19334;-73
2021/12/09 04:16:45;;;;;;;;;10.67;10.67;;;;;21.08;41.03;100239.45;109322;1280;22257;-72
2021/12/09 04:19:11;;;;;;;;;9.50;8.50;;;;;21.07;40.88;100238.07;109298;1280;20274;-73
2021/12/09 04:21:37;;;;;;;;;9.67;9.00;;;;;21.08;41.05;100232.89;109340;1280;20005;-72
2021/12/09 04:24:07;;;;;;;;;10.00;9.00;;;;;21.07;40.81;100231.36;109342;1280;18491;-73
2021/12/09 04:26:33;;;;;;;;;9.00;9.00;;;;;21.06;40.82;100233.95;109342;1280;18941;-72
2021/12/09 04:28:59;;;;;;;;;9.00;8.00;;;;;21.07;40.82;100236.81;109287;1280;23391;-72
2021/12/09 04:31:26;;;;;;;;;10.00;10.00;;;;;21.06;40.80;100238.27;109314;1279;18928;-73
2021/12/09 04:33:52;;;;;;;;;9.00;8.67;;;;;21.05;40.79;100241.20;109357;1280;19502;-73
2021/12/09 04:36:19;;;;;;;;;8.00;8.00;;;;;21.06;40.74;100249.09;109364;1280;19292;-73
2021/12/09 04:38:47;;;;;;;;;9.00;8.00;;;;;21.06;40.65;100251.10;109324;1280;22879;-73
2021/12/09 04:41:14;;;;;;;;;9.33;8.33;;;;;21.07;40.86;100255.38;109426;1280;18982;-72
2021/12/09 04:43:40;;;;;;;;;12.00;10.00;;;;;21.07;40.77;100267.38;109372;1280;21517;-72
2021/12/09 04:46:06;;;;;;;;;10.00;8.67;;;;;21.06;40.83;100271.14;109349;1280;20882;-73
2021/12/09 04:48:32;;;;;;;;;10.00;10.00;;;;;21.04;40.80;100261.13;109385;1279;22048;-73
2021/12/09 04:50:58;;;;;;;;;10.00;9.00;;;;;21.06;40.65;100268.92;109403;1280;23340;-72
2021/12/09 04:53:24;;;;;;;;;10.00;9.00;;;;;21.05;40.65;100263.27;109342;1280;23712;-73
2021/12/09 04:55:50;;;;;;;;;13.50;11.00;;;;;21.01;40.49;100255.69;109337;1278;22350;-73
2021/12/09 04:58:16;;;;;;;;;9.00;8.00;;;;;21.01;40.43;100255.86;109349;1280;20864;-73
2021/12/09 05:00:42;;;;;;;;;11.00;9.50;;;;;21.02;40.37;100261.56;109375;1279;18944;-72
2021/12/09 05:03:10;;;;;;;;;9.00;9.00;;;;;21.01;40.26;100255.90;109350;1280;18677;-72
2021/12/09 05:05:37;;;;;;;;;12.33;11.33;;;;;21.01;40.31;100264.11;109339;1280;21096;-73
2021/12/09 05:08:05;;;;;;;;;9.33;8.33;;;;;21.02;40.05;100271.45;109290;1279;23165;-73
2021/12/09 05:10:34;;;;;;;;;9.00;8.00;;;;;21.01;39.98;100273.53;109361;1280;20358;-73
2021/12/09 05:13:00;;;;;;;;;12.00;9.00;;;;;21.02;39.94;100276.52;109355;1279;21164;-73
2021/12/09 05:15:26;;;;;;;;;12.50;12.00;;;;;21.01;39.78;100274.46;109391;1280;18337;-72
2021/12/09 05:17:52;;;;;;;;;9.00;9.00;;;;;21.00;39.84;100269.88;109398;1280;19395;-72
2021/12/09 05:20:18;;;;;;;;;13.00;12.00;;;;;20.99;39.74;100268.66;109313;1280;19864;-72
2021/12/09 05:22:44;;;;;;;;;12.00;10.00;;;;;20.98;39.57;100266.63;109337;1279;18762;-71
2021/12/09 05:25:10;;;;;;;;;8.00;8.00;;;;;21.00;39.60;100269.55;109367;1280;21312;-72
2021/12/09 05:27:37;;;;;;;;;9.00;8.50;;;;;20.99;39.50;100272.31;109352;1280;20467;-73
2021/12/09 05:30:06;;;;;;;;;9.00;8.33;;;;;21.00;39.40;100272.44;109363;1279;18561;-73
2021/12/09 05:32:32;;;;;;;;;12.00;9.67;;;;;21.00;39.60;100272.81;109332;1280;21298;-73
2021/12/09 05:34:58;;;;;;;;;11.00;10.00;;;;;20.99;39.56;100270.88;109405;1280;22294;-73
2021/12/09 05:37:24;;;;;;;;;10.00;9.00;;;;;20.99;39.43;100273.09;109407;1280;18979;-72
2021/12/09 05:39:50;;;;;;;;;9.50;9.50;;;;;20.98;39.56;100280.20;109346;1280;18600;-72
2021/12/09 05:42:16;;;;;;;;;10.00;10.00;;;;;20.99;39.39;100278.71;109378;1279;21373;-72
2021/12/09 05:44:42;;;;;;;;;10.00;10.00;;;;;20.99;39.60;100285.66;109360;1280;18346;-73
2021/12/09 05:47:08;;;;;;;;;11.33;11.33;;;;;20.99;39.50;100285.60;109362;1280;19075;-73
2021/12/09 05:49:34;;;;;;;;;11.67;9.67;;;;;21.00;39.36;100284.45;109356;1280;19479;-72
2021/12/09 05:52:00;;;;;;;;;9.50;8.50;;;;;20.99;39.42;100278.94;109368;1280;18656;-73
2021/12/09 05:54:26;;;;;;;;;10.00;9.50;;;;;20.98;39.54;100275.68;109381;1280;18969;-72
2021/12/09 05:56:52;;;;;;;;;10.00;9.00;;;;;20.97;39.40;100273.44;109339;1280;19302;-72
2021/12/09 05:59:18;;;;;;;;;10.00;10.00;;;;;20.99;39.28;100276.15;109367;1280;18609;-72
2021/12/09 06:01:44;;;;;;;;;9.00;9.00;;;;;21.00;39.44;100277.13;109339;1280;23498;-73
2021/12/09 06:04:10;;;;;;;;;12.00;10.00;;;;;20.98;39.25;100279.33;109372;1280;19482;-73
2021/12/09 06:06:36;;;;;;;;;10.00;9.50;;;;;20.98;39.40;100280.31;109384;1279;18499;-72
2021/12/09 06:09:02;;;;;;;;;12.00;12.00;;;;;20.97;39.15;100279.44;109390;1278;19375;-73
2021/12/09 06:11:28;;;;;;;;;10.00;9.00;;;;;21.00;39.12;100275.36;109393;1280;21471;-72
2021/12/09 06:13:54;;;;;;;;;10.00;8.00;;;;;21.01;39.16;100271.80;109364;1279;19185;-73
2021/12/09 06:16:20;;;;;;;;;12.50;9.50;;;;;21.03;39.23;100278.93;109359;1279;18623;-73
2021/12/09 06:18:46;;;;;;;;;9.67;9.67;;;;;21.04;39.31;100283.52;109346;1279;21729;-73
2021/12/09 06:21:12;;;;;;;;;10.00;9.33;;;;;21.03;39.25;100284.77;109383;1279;20309;-74
2021/12/09 06:23:38;;;;;;;;;10.00;9.50;;;;;21.03;39.32;100283.95;109417;1279;22379;-73
2021/12/09 06:26:05;;;;;;;;;14.50;12.00;;;;;21.02;39.42;100279.38;109264;1279;19757;-72
2021/12/09 06:28:31;;;;;;;;;11.33;9.00;;;;;21.02;39.44;100281.77;109355;1279;22342;-73
2021/12/09 06:30:57;;;;;;;;;12.00;10.00;;;;;21.02;39.31;100279.84;109338;1280;20387;-72
2021/12/09 06:33:23;;;;;;;;;11.00;10.00;;;;;21.02;39.46;100280.30;109350;1279;21896;-73
2021/12/09 06:35:49;;;;;;;;;12.00;9.00;;;;;21.00;39.48;100274.53;109342;1280;19251;-74
2021/12/09 06:38:16;;;;;;;;;10.00;10.00;;;;;21.02;39.44;100279.63;109286;1280;18577;-74
2021/12/09 06:40:42;;;;;;;;;10.00;9.33;;;;;21.02;39.47;100288.98;109296;1279;21031;-72
2021/12/09 06:43:08;;;;;;;;;8.50;8.50;;;;;21.01;39.48;100288.72;109307;1280;23898;-74
2021/12/09 06:45:34;;;;;;;;;9.67;9.33;;;;;21.02;39.50;100293.16;109350;1280;22981;-73
2021/12/09 06:48:00;;;;;;;;;12.00;9.00;;;;;21.02;39.42;100304.73;109397;1279;22135;-74
2021/12/09 06:50:26;;;;;;;;;12.00;9.00;;;;;21.01;39.47;100318.63;109432;1280;18642;-74
2021/12/09 06:52:52;;;;;;;;;9.00;9.00;;;;;21.01;39.50;100319.86;109335;1279;18645;-73
2021/12/09 06:55:18;;;;;;;;;11.00;10.00;;;;;21.04;39.64;100317.66;109339;1280;23678;-75
2021/12/09 06:57:44;;;;;;;;;10.00;9.00;;;;;21.07;39.69;100314.08;109312;1280;18382;-75
2021/12/09 07:00:10;;;;;;;;;10.00;8.00;;;;;21.10;39.62;100313.89;109365;1279;19190;-75
2021/12/09 07:02:36;;;;;;;;;9.33;9.00;;;;;21.13;39.83;100314.64;109339;1279;20455;-73
2021/12/09 07:05:02;;;;;;;;;11.00;9.00;;;;;21.21;39.92;100321.29;109359;1279;18855;-72
2021/12/09 07:07:28;;;;;;;;;11.00;9.50;;;;;21.21;40.46;100324.27;109323;1279;18650;-72
2021/12/09 07:09:54;;;;;;;;;12.50;12.00;;;;;21.20;40.75;100328.74;109346;1280;19353;-73
2021/12/09 07:12:20;;;;;;;;;12.67;10.67;;;;;21.17;41.10;100323.75;109386;1279;21677;-72
2021/12/09 07:14:46;;;;;;;;;12.00;10.00;;;;;21.17;40.99;100324.23;109375;1280;18973;-71
2021/12/09 07:17:12;;;;;;;;;10.00;10.00;;;;;21.18;41.22;100318.11;109347;1278;19361;-72
2021/12/09 07:19:38;;;;;;;;;10.00;9.00;;;;;21.16;41.48;100304.59;109350;1280;18655;-73
2021/12/09 07:22:04;;;;;;;;;12.33;10.00;;;;;21.12;41.37;100295.98;109347;1279;19331;-72
2021/12/09 07:24:30;;;;;;;;;11.33;9.00;;;;;21.13;41.33;100301.10;109358;1280;20222;-72
2021/12/09 07:26:57;;;;;;;;;11.00;9.50;;;;;21.17;41.46;100300.61;109357;1280;19207;-71
2021/12/09 07:29:23;;;;;;;;;11.33;10.00;;;;;21.25;41.44;100299.11;109341;1280;19612;-72
2021/12/09 07:31:49;;;;;;;;;12.00;11.00;;;;;21.31;41.32;100304.14;109338;1279;19488;-73
2021/12/09 07:34:16;;;;;;;;;10.00;10.00;;;;;21.32;41.72;100298.06;109316;1280;18564;-73
2021/12/09 07:36:42;;;;;;;;;12.00;10.00;;;;;21.31;41.61;100298.34;109336;1279;22099;-72
2021/12/09 07:39:08;;;;;;;;;9.00;9.00;;;;;21.33;41.52;100301.81;109327;1280;19284;-73
2021/12/09 07:41:34;;;;;;;;;10.00;9.50;;;;;21.37;42.07;100295.66;109366;1280;18557;-73
2021/12/09 07:44:02;;;;;;;;;13.00;10.00;;;;;21.38;42.49;100297.09;109316;1279;22102;-73
2021/12/09 07:46:28;;;;;;;;;9.00;9.00;;;;;21.35;42.46;100299.11;109351;1280;19619;-72
2021/12/09 07:48:54;;;;;;;;;10.00;10.00;;;;;21.36;42.70;100297.56;109273;1279;19251;-72
2021/12/09 07:51:19;;;;;;;;;12.00;10.00;;;;;21.31;42.67;100287.48;109366;1279;18635;-72
2021/12/09 07:53:45;;;;;;;;;13.00;10.00;;;;;21.28;42.74;100281.84;109341;1280;19296;-74
2021/12/09 07:56:11;;;;;;;;;11.00;10.00;;;;;21.26;42.76;100281.86;109366;1279;18967;-72
2021/12/09 07:58:37;;;;;;;;;12.00;10.00;;;;;21.23;42.90;100281.27;109352;1279;22614;-73
2021/12/09 08:01:03;;;;;;;;;13.00;12.00;;;;;21.21;43.38;100283.30;109343;1279;22300;-72
2021/12/09 08:03:29;;;;;;;;;9.50;9.00;;;;;21.19;43.58;100283.66;109358;1280;18531;-73
2021/12/09 08:05:56;;;;;;;;;12.00;9.67;;;;;21.17;43.51;100282.33;109356;1280;19607;-73
2021/12/09 08:08:22;;;;;;;;;12.50;11.00;;;;;21.16;43.57;100288.39;109321;1280;20064;-73
2021/12/09 08:10:48;;;;;;;;;11.00;9.00;;;;;21.15;43.49;100285.31;109336;1280;19124;-73
2021/12/09 08:13:14;;;;;;;;;11.00;10.00;;;;;21.15;43.34;100277.27;109379;1280;18687;-73
2021/12/09 08:15:45;;;;;;;;;12.50;12.00;;;;;21.18;43.08;100279.15;109361;1279;20912;-78
2021/12/09 08:18:26;;;;;;;;;12.00;10.67;;;;;21.22;42.89;100281.27;109032;1268;455323;-74
2021/12/09 08:20:52;;;;;;;;;10.67;10.00;;;;;21.27;42.76;100288.16;109363;1280;19663;-74
2021/12/09 08:23:18;;;;;;;;;13.00;12.00;;;;;21.32;43.36;100289.04;109345;1279;19979;-74
2021/12/09 08:25:45;;;;;;;;;13.00;10.00;;;;;21.37;44.17;100293.47;109355;1279;18701;-74
2021/12/09 08:28:12;;;;;;;;;14.67;13.00;;;;;21.39;44.47;100291.60;109373;1279;20935;-73
2021/12/09 08:30:38;;;;;;;;;14.00;13.00;;;;;21.42;43.61;100289.25;109324;1279;20140;-73
2021/12/09 08:33:05;;;;;;;;;10.67;10.00;;;;;21.45;44.90;100294.77;109379;1279;21409;-73
2021/12/09 08:35:31;;;;;;;;;13.33;13.33;;;;;21.44;44.85;100288.04;109349;1280;21894;-74
2021/12/09 08:37:58;;;;;;;;;12.00;12.00;;;;;21.45;45.21;100289.02;109345;1280;19267;-74
2021/12/09 08:40:24;;;;;;;;;14.00;12.00;;;;;21.45;44.96;100295.19;109318;1280;19718;-74
2021/12/09 08:42:50;;;;;;;;;14.00;13.00;;;;;21.45;45.12;100293.05;109298;1280;20296;-71
2021/12/09 08:45:16;;;;;;;;;15.00;12.00;;;;;21.42;45.45;100294.58;109394;1280;20028;-73
2021/12/09 08:47:42;;;;;;;;;13.00;12.00;;;;;21.45;45.83;100305.39;109308;1280;22989;-74
2021/12/09 08:50:08;;;;;;;;;14.50;12.50;;;;;21.41;45.50;100303.46;109255;1280;21995;-74
2021/12/09 08:52:34;;;;;;;;;12.00;10.00;;;;;21.38;45.86;100294.02;109297;1280;23152;-74
2021/12/09 08:55:00;;;;;;;;;12.00;12.00;;;;;21.39;46.02;100294.48;109321;1279;18769;-73
2021/12/09 08:57:26;;;;;;;;;13.00;12.00;;;;;21.37;45.70;100299.30;109358;1280;18917;-74
2021/12/09 08:59:52;;;;;;;;;13.00;12.33;;;;;21.35;45.45;100300.02;109334;1279;20265;-74
2021/12/09 09:02:19;;;;;;;;;13.00;12.00;;;;;21.37;44.93;100307.98;109352;1279;19246;-73
2021/12/09 09:04:45;;;;;;;;;12.00;12.00;;;;;21.39;44.63;100308.29;109415;1279;19106;-73
2021/12/09 09:07:11;;;;;;;;;13.00;13.00;;;;;21.41;44.61;100307.69;109330;1280;19707;-73
2021/12/09 09:09:38;;;;;;;;;12.00;10.00;;;;;21.42;44.47;100315.68;109346;1280;19561;-74
2021/12/09 09:12:04;;;;;;;;;13.00;12.00;;;;;21.41;44.62;100323.98;109301;1280;19214;-74
2021/12/09 09:14:30;;;;;;;;;13.50;12.00;;;;;21.41;44.31;100321.84;109381;1279;19192;-74
2021/12/09 09:16:56;;;;;;;;;13.50;11.00;;;;;21.40;43.83;100322.36;109361;1279;18608;-74
2021/12/09 09:19:22;;;;;;;;;13.67;13.00;;;;;21.38;44.25;100320.45;109390;1279;20525;-74
2021/12/09 09:21:48;;;;;;;;;13.50;13.00;;;;;21.34;44.45;100319.64;109349;1281;19520;-75
2021/12/09 09:24:14;;;;;;;;;13.33;12.00;;;;;21.32;44.42;100311.19;109352;1280;18845;-75
2021/12/09 09:26:40;;;;;;;;;15.00;13.50;;;;;21.37;44.19;100299.60;109366;1280;18603;-74
2021/12/09 09:29:06;;;;;;;;;22.50;19.50;;;;;21.29;44.09;100296.99;109309;1280;19920;-74
2021/12/09 09:31:32;;;;;;;;;24.00;18.50;;;;;21.09;43.16;100295.30;109199;1279;23509;-73
2021/12/09 09:34:00;;;;;;;;;26.00;21.67;;;;;20.95;42.24;100315.56;109399;1280;19158;-73
2021/12/09 09:36:26;;;;;;;;;24.00;21.33;;;;;20.81;41.56;100327.20;109389;1280;19943;-72
2021/12/09 09:38:56;;;;;;;;;21.00;20.00;;;;;20.83;41.22;100307.58;109438;1279;18755;-72
2021/12/09 09:41:24;;;;;;;;;21.33;19.67;;;;;20.92;41.18;100275.01;109427;1279;20451;-72
2021/12/09 09:43:58;;;;;;;;;20.00;18.33;;;;;20.98;41.05;100273.58;109343;1279;21977;-73
2021/12/09 09:46:24;;;;;;;;;17.00;17.00;;;;;21.02;41.21;100274.89;109311;1280;20695;-73
2021/12/09 09:48:50;;;;;;;;;18.00;17.50;;;;;21.06;41.15;100269.63;109284;1280;18775;-71
2021/12/09 09:51:18;;;;;;;;;20.00;20.00;;;;;21.08;41.07;100285.98;109373;1279;20135;-73
2021/12/09 09:53:44;;;;;;;;;20.33;18.33;;;;;21.08;41.37;100293.04;109400;1279;19108;-73
2021/12/09 09:56:14;;;;;;;;;19.00;17.00;;;;;21.10;41.36;100303.02;109380;1278;18836;-73
2021/12/09 09:58:40;;;;;;;;;17.00;16.00;;;;;21.11;41.21;100313.98;109390;1280;21226;-73
2021/12/09 10:01:06;;;;;;;;;20.00;17.00;;;;;21.09;41.50;100301.42;109362;1280;19512;-73
2021/12/09 10:03:34;;;;;;;;;19.00;16.50;;;;;21.09;41.54;100286.88;109383;1279;18733;-73
2021/12/09 10:06:02;;;;;;;;;19.00;16.00;;;;;21.10;41.66;100275.94;109341;1280;19823;-73
2021/12/09 10:08:28;;;;;;;;;19.33;16.00;;;;;21.08;41.39;100270.98;109419;1280;18758;-73
2021/12/09 10:10:54;;;;;;;;;22.00;17.00;;;;;21.09;41.58;100270.33;109386;1280;19300;-74
2021/12/09 10:13:21;;;;;;;;;16.50;15.00;;;;;21.09;41.45;100264.95;109350;1280;22087;-81
2021/12/09 10:15:47;;;;;;;;;16.00;13.33;;;;;21.09;41.34;100261.85;109341;1279;22089;-75
2021/12/09 10:18:13;;;;;;;;;18.00;16.00;;;;;21.11;41.44;100262.50;109411;1280;19282;-74
2021/12/09 10:20:39;;;;;;;;;18.00;16.00;;;;;21.14;41.66;100268.30;109371;1278;19934;-75
2021/12/09 10:23:05;;;;;;;;;18.00;16.00;;;;;21.17;41.71;100271.76;109254;1279;18665;-74
2021/12/09 10:25:31;;;;;;;;;19.00;16.00;;;;;21.21;41.42;100280.45;109343;1280;18717;-74
2021/12/09 10:27:57;;;;;;;;;17.50;16.50;;;;;21.26;41.64;100270.61;109352;1279;22810;-73
2021/12/09 10:30:24;;;;;;;;;16.00;16.00;;;;;21.31;42.03;100262.43;109368;1280;18698;-73
2021/12/09 10:32:55;;;;;;;;;17.67;17.67;;;;;21.34;42.10;100269.06;109375;1280;19093;-73
2021/12/09 10:35:21;;;;;;;;;17.33;16.67;;;;;21.35;42.42;100278.94;109311;1280;20506;-73
2021/12/09 10:37:47;;;;;;;;;14.67;13.00;;;;;21.37;42.63;100282.77;109344;1279;18843;-73
2021/12/09 10:40:13;;;;;;;;;16.50;16.00;;;;;21.38;43.83;100276.66;109365;1281;20464;-73
2021/12/09 10:42:39;;;;;;;;;21.00;17.00;;;;;21.38;44.00;100265.16;109389;1280;19326;-72
2021/12/09 10:45:05;;;;;;;;;16.00;16.00;;;;;21.37;44.35;100259.30;109379;1280;18727;-73
2021/12/09 10:47:49;;;;;;;;;18.00;18.00;;;;;21.38;45.79;100250.82;109326;1280;23282;-73
2021/12/09 10:50:19;;;;;;;;;17.67;16.33;;;;;21.42;47.21;100254.98;109364;1279;21784;-73
2021/12/09 10:52:48;;;;;;;;;17.33;17.00;;;;;21.44;48.02;100263.27;109347;1280;22342;-73
2021/12/09 10:55:14;;;;;;;;;16.00;14.00;;;;;21.44;47.79;100256.26;109368;1280;20330;-73
2021/12/09 10:57:40;;;;;;;;;17.50;17.00;;;;;21.41;47.86;100243.34;109379;1279;19847;-73
2021/12/09 11:00:06;;;;;;;;;21.00;16.00;;;;;21.38;47.79;100234.98;109346;1280;18584;-73